Time;durP1;ratioP1;P1;durP2;ratioP2;P2;SDS_P1;SDS_P2;PMS_P1;PMS_P2;Temp;Humidity;BMP_temperature;BMP_pressure;BME280_temperature;BME280_humidity;BME280_pressure;Samples;Min_cycle;Max_cycle;Signal;HPM_P1;HPM_P2
2022/04/21 00:06:49;;;;;;;;;;;10.20;50.20;;;;;;20748342;28;19921;-71
2022/04/21 00:16:51;;;;;;;;;;;10.10;50.00;;;;;;20748861;28;19922;-72
2022/04/21 00:26:52;;;;;;;;;;;10.20;50.60;;;;;;20780510;28;19928;-71
2022/04/21 00:36:54;;;;;;;;;;;10.10;50.40;;;;;;20754703;28;19928;-71
2022/04/21 00:46:57;;;;;;;;;;;10.10;50.70;;;;;;20754951;28;19921;-74
2022/04/21 00:57:01;;;;;;;;;;;10.20;50.40;;;;;;20766498;28;20025;-70
2022/04/21 01:07:03;;;;;;;;;;;10.20;50.00;;;;;;20767278;28;20359;-71
2022/04/21 01:17:05;;;;;;;;;;;10.30;50.20;;;;;;20762351;28;19999;-78
2022/04/21 01:27:06;;;;;;;;;;;10.30;50.70;;;;;;20763285;28;20280;-75
2022/04/21 01:47:31;;;;;;;;;;;10.30;51.10;;;;;;20761290;28;20372;-70
2022/04/21 01:57:39;;;;;;;;;;;10.20;51.60;;;;;;20758838;28;20013;-76
2022/04/21 02:07:45;;;;;;;;;;;10.00;50.80;;;;;;20759804;28;19922;-73
2022/04/21 02:17:48;;;;;;;;;;;9.70;51.20;;;;;;20758939;28;20432;-68
2022/04/21 02:27:51;;;;;;;;;;;9.70;51.70;;;;;;20757471;28;20338;-72
2022/04/21 02:37:54;;;;;;;;;;;9.60;51.50;;;;;;20757498;28;20376;-74
2022/04/21 02:47:56;;;;;;;;;;;9.70;51.90;;;;;;20793005;28;20059;-72
2022/04/21 02:57:58;;;;;;;;;;;9.70;52.20;;;;;;20755127;28;20159;-73
2022/04/21 03:08:02;;;;;;;;;;;9.70;52.20;;;;;;20785450;28;19928;-73
2022/04/21 03:18:23;;;;;;;;;;;9.60;52.60;;;;;;20755196;28;19948;-76
2022/04/21 03:28:44;;;;;;;;;;;9.60;53.70;;;;;;20759959;28;19968;-77
2022/04/21 03:38:50;;;;;;;;;;;9.50;53.60;;;;;;20764340;28;19922;-77
2022/04/21 03:48:55;;;;;;;;;;;9.60;53.60;;;;;;20749950;28;19922;-71
2022/04/21 03:58:59;;;;;;;;;;;9.60;54.50;;;;;;20750011;28;20395;-67
2022/04/21 04:19:22;;;;;;;;;;;9.20;55.10;;;;;;20749843;28;19921;-72
2022/04/21 04:29:25;;;;;;;;;;;9.30;55.90;;;;;;20750786;28;20034;-76
2022/04/21 04:39:26;;;;;;;;;;;9.30;55.70;;;;;;20749398;28;20028;-71
2022/04/21 04:49:27;;;;;;;;;;;9.10;55.70;;;;;;20748874;28;20299;-73
2022/04/21 04:59:29;;;;;;;;;;;9.00;56.60;;;;;;20745871;28;19925;-74
2022/04/21 05:09:31;;;;;;;;;;;9.00;56.60;;;;;;20747529;28;20431;-71
2022/04/21 05:19:33;;;;;;;;;;;8.90;57.30;;;;;;20747113;28;20379;-74
2022/04/21 05:39:54;;;;;;;;;;;8.80;57.50;;;;;;20761903;28;19928;-75
2022/04/21 05:49:56;;;;;;;;;;;8.90;57.70;;;;;;20763412;28;20350;-69
2022/04/21 05:59:58;;;;;;;;;;;8.90;57.90;;;;;;20765179;28;19925;-70
2022/04/21 06:09:59;;;;;;;;;;;8.90;57.80;;;;;;20758600;28;19922;-73
2022/04/21 06:20:01;;;;;;;;;;;9.00;57.60;;;;;;20756531;28;19931;-73
2022/04/21 06:30:03;;;;;;;;;;;9.20;57.30;;;;;;20756947;28;19921;-69
2022/04/21 06:40:05;;;;;;;;;;;9.50;56.90;;;;;;20755186;28;20372;-72
2022/04/21 06:50:06;;;;;;;;;;;9.80;56.60;;;;;;20753480;28;19936;-70
2022/04/21 07:00:09;;;;;;;;;;;10.10;55.30;;;;;;20754601;28;19922;-72
2022/04/21 07:10:11;;;;;;;;;;;10.50;54.50;;;;;;20753574;28;20310;-69
2022/04/21 07:20:13;;;;;;;;;;;11.30;52.40;;;;;;20752774;28;20016;-69
2022/04/21 07:30:15;;;;;;;;;;;11.90;52.70;;;;;;20752356;28;19944;-70
2022/04/21 07:40:18;;;;;;;;;;;12.50;51.40;;;;;;20750671;28;19991;-71
2022/04/21 07:50:24;;;;;;;;;;;12.70;50.30;;;;;;20750131;28;19929;-71
2022/04/21 08:00:25;;;;;;;;;;;12.90;49.20;;;;;;20779262;28;20004;-69
2022/04/21 08:10:30;;;;;;;;;;;13.20;48.90;;;;;;20749217;28;19941;-70
2022/04/21 08:20:32;;;;;;;;;;;;;;;;;;20748604;28;20397;-71
2022/04/21 08:40:54;;;;;;;;;;;14.30;46.60;;;;;;20734807;28;20353;-64
2022/04/21 08:50:56;;;;;;;;;;;;;;;;;;20748068;28;19948;-73
2022/04/21 09:00:58;;;;;;;;;;;;;;;;;;20736141;28;19948;-70
2022/04/21 09:11:07;;;;;;;;;;;17.60;42.10;;;;;;20681493;28;19929;-65
2022/04/21 09:21:10;;;;;;;;;;;16.80;42.00;;;;;;20678807;28;20405;-55
2022/04/21 09:31:11;;;;;;;;;;;16.70;42.20;;;;;;20679583;28;20020;-65
2022/04/21 09:41:13;;;;;;;;;;;16.50;41.00;;;;;;20677306;28;20394;-61
2022/04/21 09:51:16;;;;;;;;;;;16.70;40.00;;;;;;20753370;28;19944;-60
2022/04/21 10:01:19;;;;;;;;;;;16.60;40.40;;;;;;20757495;28;19927;-60
2022/04/21 10:11:24;;;;;;;;;;;16.50;42.40;;;;;;20756970;28;19922;-69
2022/04/21 10:21:33;;;;;;;;;;;16.40;43.10;;;;;;20746781;28;19921;-74
2022/04/21 10:31:38;;;;;;;;;;;16.00;43.40;;;;;;20756557;28;19922;-75
2022/04/21 10:41:40;;;;;;;;;;;15.90;42.60;;;;;;20759721;28;19921;-74
2022/04/21 10:51:41;;;;;;;;;;;15.70;41.80;;;;;;20747406;28;19928;-70
2022/04/21 11:01:52;;;;;;;;;;;16.10;42.20;;;;;;20710556;28;19926;-74
2022/04/21 11:11:59;;;;;;;;;;;;;;;;;;20691464;28;20407;-60
2022/04/21 11:22:01;;;;;;;;;;;;;;;;;;20708200;28;20444;-62
2022/04/21 11:32:03;;;;;;;;;;;;;;;;;;20748954;28;19921;-67
2022/04/21 11:42:04;;;;;;;;;;;;;;;;;;20747390;28;20287;-65
2022/04/21 11:52:06;;;;;;;;;;;18.30;36.30;;;;;;20747560;28;20051;-68
2022/04/21 12:12:32;;;;;;;;;;;18.10;36.80;;;;;;20748566;28;19921;-63
2022/04/21 12:22:33;;;;;;;;;;;17.60;38.70;;;;;;20755634;28;19921;-65
2022/04/21 12:32:34;;;;;;;;;;;17.20;38.80;;;;;;20747203;28;19979;-62
2022/04/21 12:42:35;;;;;;;;;;;17.40;38.60;;;;;;20753123;28;20029;-63
2022/04/21 12:52:38;;;;;;;;;;;17.60;38.40;;;;;;20764301;28;19980;-66
2022/04/21 13:02:39;;;;;;;;;;;17.70;37.70;;;;;;20762819;28;20280;-61
2022/04/21 13:12:40;;;;;;;;;;;17.60;38.90;;;;;;20762236;28;20065;-61
2022/04/21 13:22:42;;;;;;;;;;;17.90;37.90;;;;;;20760666;28;19922;-71
2022/04/21 13:43:05;;;;;;;;;;;18.20;37.80;;;;;;20759076;28;20330;-61
2022/04/21 13:53:07;;;;;;;;;;;17.70;37.60;;;;;;20757950;28;19921;-62
2022/04/21 14:03:09;;;;;;;;;;;18.10;36.60;;;;;;20758322;28;19929;-62
2022/04/21 14:13:10;;;;;;;;;;;18.20;37.30;;;;;;20757301;28;19983;-62
2022/04/21 14:23:15;;;;;;;;;;;18.50;36.40;;;;;;20788211;28;19925;-62
2022/04/21 14:33:17;;;;;;;;;;;18.40;37.40;;;;;;20754658;28;19926;-61
2022/04/21 14:53:43;;;;;;;;;;;18.30;36.70;;;;;;20754244;28;19969;-68
2022/04/21 15:03:45;;;;;;;;;;;18.60;36.60;;;;;;20752485;28;20335;-67
2022/04/21 15:13:46;;;;;;;;;;;18.30;36.90;;;;;;20753794;28;20426;-62
2022/04/21 15:23:47;;;;;;;;;;;18.20;37.10;;;;;;20750869;28;20282;-63
2022/04/21 15:33:50;;;;;;;;;;;;;;;;;;20749118;28;19925;-65
2022/04/21 15:43:52;;;;;;;;;;;19.60;35.90;;;;;;20750491;28;19922;-61
2022/04/21 16:04:13;;;;;;;;;;;18.70;37.20;;;;;;20736519;28;20355;-69
2022/04/21 16:14:15;;;;;;;;;;;18.60;37.20;;;;;;20733765;28;19934;-57
2022/04/21 16:24:16;;;;;;;;;;;18.40;37.70;;;;;;20689103;28;19921;-57
2022/04/21 16:34:18;;;;;;;;;;;18.40;37.70;;;;;;20746060;28;19922;-69
2022/04/21 16:44:21;;;;;;;;;;;18.40;37.90;;;;;;20747114;28;20462;-67
2022/04/21 16:54:24;;;;;;;;;;;18.40;37.60;;;;;;20746766;28;19922;-64
2022/04/21 17:04:25;;;;;;;;;;;18.30;37.60;;;;;;20748069;28;19925;-64
2022/04/21 17:14:27;;;;;;;;;;;18.30;37.90;;;;;;20748561;28;19944;-66
2022/04/21 17:24:28;;;;;;;;;;;18.10;37.80;;;;;;20743661;28;20012;-62
2022/04/21 17:34:30;;;;;;;;;;;18.00;38.20;;;;;;20758822;28;19921;-61
2022/04/21 17:44:37;;;;;;;;;;;17.70;39.10;;;;;;20760121;28;19944;-66
2022/04/21 17:54:39;;;;;;;;;;;17.50;39.30;;;;;;20760288;28;19922;-62
2022/04/21 18:04:41;;;;;;;;;;;17.40;38.90;;;;;;20761635;28;20063;-57
2022/04/21 18:14:42;;;;;;;;;;;17.20;38.10;;;;;;20757876;28;20347;-58
2022/04/21 18:24:44;;;;;;;;;;;;;;;;;;20755132;28;20001;-59
2022/04/21 18:34:46;;;;;;;;;;;17.20;39.00;;;;;;20743429;28;19929;-60
2022/04/21 18:44:47;;;;;;;;;;;16.60;39.60;;;;;;20740398;28;19944;-62
2022/04/21 18:54:49;;;;;;;;;;;16.40;39.50;;;;;;20756053;28;19926;-60
2022/04/21 19:04:50;;;;;;;;;;;16.10;39.80;;;;;;20755634;28;19928;-65
2022/04/21 19:14:52;;;;;;;;;;;15.90;41.60;;;;;;20754831;28;19921;-59
2022/04/21 19:24:53;;;;;;;;;;;15.80;41.30;;;;;;20755608;28;20399;-71
2022/04/21 19:34:55;;;;;;;;;;;15.60;41.20;;;;;;20752130;28;20302;-70
2022/04/21 19:44:57;;;;;;;;;;;15.40;40.80;;;;;;20750736;28;19927;-61
2022/04/21 19:55:01;;;;;;;;;;;15.20;41.00;;;;;;20750596;28;19926;-62
2022/04/21 20:05:03;;;;;;;;;;;15.10;40.90;;;;;;20749637;28;19922;-67
2022/04/21 20:15:09;;;;;;;;;;;14.90;40.10;;;;;;20749786;28;19921;-70
2022/04/21 20:35:30;;;;;;;;;;;14.60;39.10;;;;;;20748565;28;20429;-65
2022/04/21 20:45:31;;;;;;;;;;;14.40;38.70;;;;;;20749096;28;19921;-69
2022/04/21 20:55:33;;;;;;;;;;;14.30;38.80;;;;;;20752013;28;19928;-65
2022/04/21 21:05:35;;;;;;;;;;;14.20;38.80;;;;;;20755120;28;19928;-62
2022/04/21 21:15:37;;;;;;;;;;;14.10;38.70;;;;;;20763475;28;19991;-62
2022/04/21 21:25:39;;;;;;;;;;;14.00;39.70;;;;;;20761912;28;19979;-62
2022/04/21 21:35:40;;;;;;;;;;;14.00;40.80;;;;;;20761575;28;19967;-63
2022/04/21 21:45:42;;;;;;;;;;;13.80;42.80;;;;;;20760846;28;19983;-66
2022/04/21 21:55:44;;;;;;;;;;;13.80;44.40;;;;;;20759414;28;19921;-63
2022/04/21 22:05:45;;;;;;;;;;;13.70;45.40;;;;;;20760113;28;20011;-65
2022/04/21 22:15:47;;;;;;;;;;;13.70;46.70;;;;;;20757762;28;20020;-66
2022/04/21 22:25:48;;;;;;;;;;;13.60;47.90;;;;;;20758179;28;20398;-63
2022/04/21 22:35:50;;;;;;;;;;;13.50;49.40;;;;;;20757490;28;19988;-63
2022/04/21 22:45:52;;;;;;;;;;;13.40;51.30;;;;;;20756326;28;20271;-66
2022/04/21 22:55:53;;;;;;;;;;;13.30;52.70;;;;;;20755224;28;20294;-70
2022/04/21 23:05:55;;;;;;;;;;;13.30;51.60;;;;;;20755340;28;19975;-61
2022/04/21 23:16:00;;;;;;;;;;;13.20;51.30;;;;;;20753399;28;19921;-61
2022/04/21 23:26:02;;;;;;;;;;;13.20;52.50;;;;;;20753976;28;19936;-70
2022/04/21 23:36:04;;;;;;;;;;;13.10;53.40;;;;;;20752674;28;20011;-68
2022/04/21 23:46:05;;;;;;;;;;;13.00;54.50;;;;;;20751967;28;19921;-65
2022/04/21 23:56:10;;;;;;;;;;;12.90;54.80;;;;;;20752030;28;19944;-65
